KDWH/DWH METAR and TAF weather

Enter ICAO airport designator
Station Type Date Time Source
KDWH METAR 2020/07/02 21:53 UTC NOAA

KDWH 022153Z 7SM CLR 34/22 A2993 RMK AO2 SLP131 T03440217


Station Type Date Time Source
KDWH Decoded METAR 2020/07/02 21:53 UTC NOAA

HOUSTON HOOKS MEMORIAL, TX, United States (KDWH) 30-04N 95-33W 46M
Jul 02, 2020 - 05:53 PM EDT / 2020.07.02 2153 UTC
Visibility: 7 mile(s):0
Sky conditions: clear
Temperature: 93.9 F (34.4 C)
Heat index: 100.8 F (38.2 C):1
Dew Point: 71.1 F (21.7 C)
Relative Humidity: 47%
Pressure (altimeter): 29.93 in. Hg (1013 hPa)
ob: KDWH 022153Z 7SM CLR 34/22 A2993 RMK AO2 SLP131 T03440217
cycle: 22

Station Type Date Time Source
KDWH TAF 2017/02/07 15:09 UTC NOAA

TAF
AMD KDWH 071507Z 0715/0812 23010KT P6SM BKN015
TEMPO 0715/0719 SCT015
FM071900 25010KT P6SM SCT025
FM080100 22005KT P6SM SCT250
TEMPO 0807/0809 3SM BR BKN013
FM080900 VRB03KT 2SM BR OVC008

Example: see airport list